Alexandria, Ohio
Current Conditions -  °F | °C
As of 9:54 PM on Friday 26 Dec 2014 (Local Time) from KVTA Reporting Station
Clear Clear  
Wind Chill: 36°   Ceiling: Unl
Heat Index: 36°   Visibility: 10mi
Dew Point: 32°   Wind: 0mph
Humidity: 86%   Direction: NA
Pressure: 30.18"   Gusts: NA
Location:  40.09°N, 82.61°W
Report Text: KVTA 270254Z AUTO 00000KT 10SM CLR 02/00 A3018 RMK AO2 SLP227 T00220000 58002
Loading
Personal Weather Stations






























Interactive Weather Map New forecast layout! Learn more

10-Day Weather Forecast

Advertisements
Track Severe Weather on mobile